sensor_id;sensor_type;location;lat;lon;timestamp;P1;durP1;ratioP1;P2;durP2;ratioP2
846;SDS011;410;48.954;9.474;2023-09-19T00:01:06;2.77;;;1.00;;
846;SDS011;410;48.954;9.474;2023-09-19T00:03:10;3.90;;;1.10;;
846;SDS011;410;48.954;9.474;2023-09-19T00:05:14;1.80;;;1.03;;
846;SDS011;410;48.954;9.474;2023-09-19T00:07:16;2.43;;;1.00;;
846;SDS011;410;48.954;9.474;2023-09-19T00:09:20;2.23;;;1.00;;
846;SDS011;410;48.954;9.474;2023-09-19T00:11:23;2.40;;;0.93;;
846;SDS011;410;48.954;9.474;2023-09-19T00:13:27;2.30;;;1.30;;
846;SDS011;410;48.954;9.474;2023-09-19T00:15:36;4.13;;;1.53;;
846;SDS011;410;48.954;9.474;2023-09-19T00:17:41;2.00;;;1.03;;
846;SDS011;410;48.954;9.474;2023-09-19T00:19:45;2.27;;;1.00;;
846;SDS011;410;48.954;9.474;2023-09-19T00:21:53;2.00;;;1.03;;
846;SDS011;410;48.954;9.474;2023-09-19T00:23:56;2.53;;;1.50;;
846;SDS011;410;48.954;9.474;2023-09-19T00:25:59;2.70;;;1.33;;
846;SDS011;410;48.954;9.474;2023-09-19T00:28:02;2.50;;;1.33;;
846;SDS011;410;48.954;9.474;2023-09-19T00:30:06;2.57;;;1.33;;
846;SDS011;410;48.954;9.474;2023-09-19T00:32:15;7.63;;;1.30;;
846;SDS011;410;48.954;9.474;2023-09-19T00:34:20;5.23;;;1.47;;
846;SDS011;410;48.954;9.474;2023-09-19T00:36:24;4.40;;;1.50;;
846;SDS011;410;48.954;9.474;2023-09-19T00:38:27;2.70;;;2.00;;
846;SDS011;410;48.954;9.474;2023-09-19T00:40:32;1.77;;;1.10;;
846;SDS011;410;48.954;9.474;2023-09-19T00:42:37;3.13;;;1.50;;
846;SDS011;410;48.954;9.474;2023-09-19T00:44:41;3.03;;;1.30;;
846;SDS011;410;48.954;9.474;2023-09-19T00:46:44;3.07;;;1.40;;
846;SDS011;410;48.954;9.474;2023-09-19T00:48:50;2.70;;;1.00;;
846;SDS011;410;48.954;9.474;2023-09-19T00:50:55;2.57;;;1.37;;
846;SDS011;410;48.954;9.474;2023-09-19T00:53:00;2.50;;;1.30;;
846;SDS011;410;48.954;9.474;2023-09-19T00:55:04;2.67;;;1.80;;
846;SDS011;410;48.954;9.474;2023-09-19T00:57:08;1.80;;;1.20;;
846;SDS011;410;48.954;9.474;2023-09-19T00:59:12;2.47;;;1.40;;
846;SDS011;410;48.954;9.474;2023-09-19T01:01:15;2.33;;;1.37;;
846;SDS011;410;48.954;9.474;2023-09-19T01:03:19;3.10;;;1.20;;
846;SDS011;410;48.954;9.474;2023-09-19T01:05:23;2.00;;;1.17;;
846;SDS011;410;48.954;9.474;2023-09-19T01:07:28;3.67;;;1.30;;
846;SDS011;410;48.954;9.474;2023-09-19T01:09:33;2.10;;;1.10;;
846;SDS011;410;48.954;9.474;2023-09-19T01:11:37;2.20;;;1.33;;
846;SDS011;410;48.954;9.474;2023-09-19T01:13:47;2.37;;;1.30;;
846;SDS011;410;48.954;9.474;2023-09-19T01:15:55;2.07;;;1.10;;
846;SDS011;410;48.954;9.474;2023-09-19T01:18:07;3.20;;;1.40;;
846;SDS011;410;48.954;9.474;2023-09-19T01:20:16;2.37;;;1.10;;
846;SDS011;410;48.954;9.474;2023-09-19T01:22:28;2.80;;;1.23;;
846;SDS011;410;48.954;9.474;2023-09-19T01:24:49;2.27;;;1.20;;
846;SDS011;410;48.954;9.474;2023-09-19T01:27:06;2.47;;;1.33;;
846;SDS011;410;48.954;9.474;2023-09-19T01:29:23;2.57;;;1.50;;
846;SDS011;410;48.954;9.474;2023-09-19T01:31:36;3.07;;;1.30;;
846;SDS011;410;48.954;9.474;2023-09-19T01:36:08;1.77;;;1.10;;
846;SDS011;410;48.954;9.474;2023-09-19T01:38:10;2.60;;;1.60;;
846;SDS011;410;48.954;9.474;2023-09-19T01:40:15;2.10;;;1.03;;
846;SDS011;410;48.954;9.474;2023-09-19T01:42:24;2.43;;;1.00;;
846;SDS011;410;48.954;9.474;2023-09-19T01:44:35;1.80;;;1.30;;
846;SDS011;410;48.954;9.474;2023-09-19T01:46:44;2.10;;;1.03;;
846;SDS011;410;48.954;9.474;2023-09-19T01:48:54;2.57;;;1.10;;
846;SDS011;410;48.954;9.474;2023-09-19T01:51:02;2.00;;;1.30;;
846;SDS011;410;48.954;9.474;2023-09-19T01:53:10;2.53;;;1.00;;
846;SDS011;410;48.954;9.474;2023-09-19T01:55:18;2.43;;;1.07;;
846;SDS011;410;48.954;9.474;2023-09-19T01:57:26;2.33;;;1.10;;
846;SDS011;410;48.954;9.474;2023-09-19T01:59:34;2.00;;;1.20;;
846;SDS011;410;48.954;9.474;2023-09-19T02:01:40;3.20;;;1.20;;
846;SDS011;410;48.954;9.474;2023-09-19T02:03:48;2.40;;;1.23;;
846;SDS011;410;48.954;9.474;2023-09-19T02:05:52;3.57;;;1.20;;
846;SDS011;410;48.954;9.474;2023-09-19T02:07:56;2.23;;;1.00;;
846;SDS011;410;48.954;9.474;2023-09-19T02:10:00;3.60;;;1.17;;
846;SDS011;410;48.954;9.474;2023-09-19T02:12:05;3.33;;;1.20;;
846;SDS011;410;48.954;9.474;2023-09-19T02:14:10;2.13;;;1.03;;
846;SDS011;410;48.954;9.474;2023-09-19T02:16:14;1.90;;;1.10;;
846;SDS011;410;48.954;9.474;2023-09-19T02:18:22;2.53;;;1.20;;
846;SDS011;410;48.954;9.474;2023-09-19T02:20:27;2.10;;;1.00;;
846;SDS011;410;48.954;9.474;2023-09-19T02:22:30;2.90;;;1.13;;
846;SDS011;410;48.954;9.474;2023-09-19T02:24:34;6.07;;;1.40;;
846;SDS011;410;48.954;9.474;2023-09-19T02:26:38;2.20;;;1.20;;
846;SDS011;410;48.954;9.474;2023-09-19T02:28:43;2.80;;;1.10;;
846;SDS011;410;48.954;9.474;2023-09-19T02:30:47;2.27;;;1.10;;
846;SDS011;410;48.954;9.474;2023-09-19T02:32:52;2.13;;;1.40;;
846;SDS011;410;48.954;9.474;2023-09-19T02:34:55;2.40;;;1.10;;
846;SDS011;410;48.954;9.474;2023-09-19T02:37:01;2.57;;;1.00;;
846;SDS011;410;48.954;9.474;2023-09-19T02:39:06;2.47;;;1.27;;
846;SDS011;410;48.954;9.474;2023-09-19T02:41:10;1.87;;;0.90;;
846;SDS011;410;48.954;9.474;2023-09-19T02:43:14;1.40;;;0.90;;
846;SDS011;410;48.954;9.474;2023-09-19T02:45:19;1.80;;;0.80;;
846;SDS011;410;48.954;9.474;2023-09-19T02:47:26;2.03;;;0.90;;
846;SDS011;410;48.954;9.474;2023-09-19T02:49:30;1.77;;;1.13;;
846;SDS011;410;48.954;9.474;2023-09-19T02:51:35;1.33;;;0.90;;
846;SDS011;410;48.954;9.474;2023-09-19T02:53:40;1.80;;;1.00;;
846;SDS011;410;48.954;9.474;2023-09-19T02:55:44;3.43;;;1.10;;
846;SDS011;410;48.954;9.474;2023-09-19T02:57:48;2.47;;;1.17;;
846;SDS011;410;48.954;9.474;2023-09-19T02:59:51;1.50;;;0.90;;
846;SDS011;410;48.954;9.474;2023-09-19T03:01:55;2.47;;;1.10;;
846;SDS011;410;48.954;9.474;2023-09-19T03:03:59;4.33;;;1.17;;
846;SDS011;410;48.954;9.474;2023-09-19T03:06:04;6.03;;;1.40;;
846;SDS011;410;48.954;9.474;2023-09-19T03:08:11;3.43;;;1.17;;
846;SDS011;410;48.954;9.474;2023-09-19T03:10:18;1.80;;;1.20;;
846;SDS011;410;48.954;9.474;2023-09-19T03:12:22;1.73;;;1.10;;
846;SDS011;410;48.954;9.474;2023-09-19T03:14:26;1.80;;;1.10;;
846;SDS011;410;48.954;9.474;2023-09-19T03:16:33;2.60;;;1.10;;
846;SDS011;410;48.954;9.474;2023-09-19T03:18:40;2.50;;;1.20;;
846;SDS011;410;48.954;9.474;2023-09-19T03:20:43;1.83;;;1.20;;
846;SDS011;410;48.954;9.474;2023-09-19T03:22:47;2.73;;;1.20;;
846;SDS011;410;48.954;9.474;2023-09-19T03:24:51;2.30;;;1.17;;
846;SDS011;410;48.954;9.474;2023-09-19T03:26:56;1.90;;;1.27;;
846;SDS011;410;48.954;9.474;2023-09-19T03:29:03;2.33;;;1.23;;
846;SDS011;410;48.954;9.474;2023-09-19T03:31:09;2.40;;;1.20;;
846;SDS011;410;48.954;9.474;2023-09-19T03:33:13;1.80;;;1.30;;
846;SDS011;410;48.954;9.474;2023-09-19T03:35:17;2.37;;;1.10;;
846;SDS011;410;48.954;9.474;2023-09-19T03:37:23;1.93;;;1.10;;
846;SDS011;410;48.954;9.474;2023-09-19T03:39:27;2.83;;;1.20;;
846;SDS011;410;48.954;9.474;2023-09-19T03:41:30;4.33;;;1.13;;
846;SDS011;410;48.954;9.474;2023-09-19T03:43:37;2.53;;;1.20;;
846;SDS011;410;48.954;9.474;2023-09-19T03:45:41;1.73;;;1.13;;
846;SDS011;410;48.954;9.474;2023-09-19T03:47:47;2.27;;;1.97;;
846;SDS011;410;48.954;9.474;2023-09-19T03:49:52;2.07;;;1.20;;
846;SDS011;410;48.954;9.474;2023-09-19T03:51:56;6.43;;;1.40;;
846;SDS011;410;48.954;9.474;2023-09-19T03:54:00;2.20;;;1.40;;
846;SDS011;410;48.954;9.474;2023-09-19T03:56:05;3.60;;;1.30;;
846;SDS011;410;48.954;9.474;2023-09-19T03:58:08;2.30;;;0.97;;
846;SDS011;410;48.954;9.474;2023-09-19T04:00:14;2.90;;;1.17;;
846;SDS011;410;48.954;9.474;2023-09-19T04:02:23;2.63;;;1.30;;
846;SDS011;410;48.954;9.474;2023-09-19T04:04:26;1.97;;;1.17;;
846;SDS011;410;48.954;9.474;2023-09-19T04:06:31;4.27;;;1.40;;
846;SDS011;410;48.954;9.474;2023-09-19T04:08:35;2.00;;;1.30;;
846;SDS011;410;48.954;9.474;2023-09-19T04:10:38;1.60;;;1.00;;
846;SDS011;410;48.954;9.474;2023-09-19T04:12:50;2.90;;;1.20;;
846;SDS011;410;48.954;9.474;2023-09-19T04:14:54;1.90;;;1.00;;
846;SDS011;410;48.954;9.474;2023-09-19T04:16:59;3.13;;;1.10;;
846;SDS011;410;48.954;9.474;2023-09-19T04:19:04;1.87;;;1.20;;
846;SDS011;410;48.954;9.474;2023-09-19T04:21:08;2.00;;;1.13;;
846;SDS011;410;48.954;9.474;2023-09-19T04:23:11;2.37;;;1.43;;
846;SDS011;410;48.954;9.474;2023-09-19T04:25:15;2.57;;;1.37;;
846;SDS011;410;48.954;9.474;2023-09-19T04:27:18;4.33;;;1.20;;
846;SDS011;410;48.954;9.474;2023-09-19T04:29:22;1.60;;;1.20;;
846;SDS011;410;48.954;9.474;2023-09-19T04:31:28;1.80;;;1.03;;
846;SDS011;410;48.954;9.474;2023-09-19T04:33:33;3.23;;;1.30;;
846;SDS011;410;48.954;9.474;2023-09-19T04:35:37;2.70;;;1.50;;
846;SDS011;410;48.954;9.474;2023-09-19T04:37:40;2.30;;;1.40;;
846;SDS011;410;48.954;9.474;2023-09-19T04:39:43;1.80;;;1.20;;
846;SDS011;410;48.954;9.474;2023-09-19T04:41:47;1.77;;;1.03;;
846;SDS011;410;48.954;9.474;2023-09-19T04:43:50;2.60;;;1.77;;
846;SDS011;410;48.954;9.474;2023-09-19T04:45:53;2.50;;;1.53;;
846;SDS011;410;48.954;9.474;2023-09-19T04:47:57;3.90;;;1.63;;
846;SDS011;410;48.954;9.474;2023-09-19T04:50:01;3.13;;;1.50;;
846;SDS011;410;48.954;9.474;2023-09-19T04:52:05;1.80;;;1.30;;
846;SDS011;410;48.954;9.474;2023-09-19T04:54:08;2.93;;;1.33;;
846;SDS011;410;48.954;9.474;2023-09-19T04:56:12;2.90;;;1.20;;
846;SDS011;410;48.954;9.474;2023-09-19T04:58:15;2.03;;;1.40;;
846;SDS011;410;48.954;9.474;2023-09-19T05:00:20;2.60;;;1.70;;
846;SDS011;410;48.954;9.474;2023-09-19T05:02:28;1.70;;;1.37;;
846;SDS011;410;48.954;9.474;2023-09-19T05:04:33;2.40;;;1.30;;
846;SDS011;410;48.954;9.474;2023-09-19T05:06:38;2.20;;;1.50;;
846;SDS011;410;48.954;9.474;2023-09-19T05:08:42;2.30;;;1.70;;
846;SDS011;410;48.954;9.474;2023-09-19T05:10:45;2.30;;;1.50;;
846;SDS011;410;48.954;9.474;2023-09-19T05:12:48;2.20;;;1.53;;
846;SDS011;410;48.954;9.474;2023-09-19T05:14:55;2.07;;;1.50;;
846;SDS011;410;48.954;9.474;2023-09-19T05:16:59;4.80;;;1.90;;
846;SDS011;410;48.954;9.474;2023-09-19T05:19:03;2.37;;;1.83;;
846;SDS011;410;48.954;9.474;2023-09-19T05:21:06;2.53;;;1.60;;
846;SDS011;410;48.954;9.474;2023-09-19T05:23:11;2.90;;;1.67;;
846;SDS011;410;48.954;9.474;2023-09-19T05:25:14;2.70;;;1.60;;
846;SDS011;410;48.954;9.474;2023-09-19T05:27:18;3.13;;;1.80;;
846;SDS011;410;48.954;9.474;2023-09-19T05:29:22;2.57;;;1.90;;
846;SDS011;410;48.954;9.474;2023-09-19T05:31:25;6.00;;;2.10;;
846;SDS011;410;48.954;9.474;2023-09-19T05:33:30;3.47;;;1.90;;
846;SDS011;410;48.954;9.474;2023-09-19T05:35:35;3.30;;;2.40;;
846;SDS011;410;48.954;9.474;2023-09-19T05:37:41;3.10;;;2.37;;
846;SDS011;410;48.954;9.474;2023-09-19T05:39:47;3.13;;;1.97;;
846;SDS011;410;48.954;9.474;2023-09-19T05:41:51;3.17;;;2.20;;
846;SDS011;410;48.954;9.474;2023-09-19T05:43:54;2.67;;;2.10;;
846;SDS011;410;48.954;9.474;2023-09-19T05:45:59;4.93;;;2.70;;
846;SDS011;410;48.954;9.474;2023-09-19T05:48:07;2.80;;;2.40;;
846;SDS011;410;48.954;9.474;2023-09-19T05:50:11;8.40;;;2.10;;
846;SDS011;410;48.954;9.474;2023-09-19T05:52:16;6.20;;;2.70;;
846;SDS011;410;48.954;9.474;2023-09-19T05:54:20;3.00;;;2.30;;
846;SDS011;410;48.954;9.474;2023-09-19T05:56:25;5.20;;;2.50;;
846;SDS011;410;48.954;9.474;2023-09-19T05:58:29;5.33;;;2.77;;
846;SDS011;410;48.954;9.474;2023-09-19T06:00:32;3.30;;;2.50;;
846;SDS011;410;48.954;9.474;2023-09-19T06:02:38;4.00;;;2.17;;
846;SDS011;410;48.954;9.474;2023-09-19T06:04:46;3.87;;;2.00;;
846;SDS011;410;48.954;9.474;2023-09-19T06:06:51;2.47;;;2.00;;
846;SDS011;410;48.954;9.474;2023-09-19T06:08:55;4.03;;;2.13;;
846;SDS011;410;48.954;9.474;2023-09-19T06:11:00;2.70;;;1.90;;
846;SDS011;410;48.954;9.474;2023-09-19T06:13:06;3.60;;;2.20;;
846;SDS011;410;48.954;9.474;2023-09-19T06:15:12;2.93;;;1.80;;
846;SDS011;410;48.954;9.474;2023-09-19T06:17:17;2.57;;;1.90;;
846;SDS011;410;48.954;9.474;2023-09-19T06:19:21;4.60;;;1.70;;
846;SDS011;410;48.954;9.474;2023-09-19T06:21:27;3.87;;;1.73;;
846;SDS011;410;48.954;9.474;2023-09-19T06:23:31;3.10;;;2.03;;
846;SDS011;410;48.954;9.474;2023-09-19T06:25:36;3.10;;;1.83;;
846;SDS011;410;48.954;9.474;2023-09-19T06:27:41;3.60;;;2.20;;
846;SDS011;410;48.954;9.474;2023-09-19T06:29:48;3.20;;;2.40;;
846;SDS011;410;48.954;9.474;2023-09-19T06:31:51;3.43;;;2.30;;
846;SDS011;410;48.954;9.474;2023-09-19T06:33:55;3.40;;;1.93;;
846;SDS011;410;48.954;9.474;2023-09-19T06:35:58;3.20;;;2.23;;
846;SDS011;410;48.954;9.474;2023-09-19T06:38:02;2.83;;;2.27;;
846;SDS011;410;48.954;9.474;2023-09-19T06:40:07;2.50;;;2.10;;
846;SDS011;410;48.954;9.474;2023-09-19T06:42:15;2.60;;;2.13;;
846;SDS011;410;48.954;9.474;2023-09-19T06:44:22;3.53;;;2.27;;
846;SDS011;410;48.954;9.474;2023-09-19T06:46:28;5.00;;;4.30;;
846;SDS011;410;48.954;9.474;2023-09-19T06:48:35;4.57;;;2.50;;
846;SDS011;410;48.954;9.474;2023-09-19T06:50:39;5.40;;;3.80;;
846;SDS011;410;48.954;9.474;2023-09-19T06:52:44;3.73;;;2.40;;
846;SDS011;410;48.954;9.474;2023-09-19T06:54:48;3.90;;;2.50;;
846;SDS011;410;48.954;9.474;2023-09-19T06:56:54;2.90;;;2.40;;
846;SDS011;410;48.954;9.474;2023-09-19T06:58:58;2.60;;;2.10;;
846;SDS011;410;48.954;9.474;2023-09-19T07:01:02;3.50;;;2.47;;
846;SDS011;410;48.954;9.474;2023-09-19T07:03:08;2.87;;;2.23;;
846;SDS011;410;48.954;9.474;2023-09-19T07:05:14;4.47;;;2.43;;
846;SDS011;410;48.954;9.474;2023-09-19T07:07:18;5.20;;;2.40;;
846;SDS011;410;48.954;9.474;2023-09-19T07:09:25;3.37;;;2.50;;
846;SDS011;410;48.954;9.474;2023-09-19T07:11:29;5.73;;;2.90;;
846;SDS011;410;48.954;9.474;2023-09-19T07:13:33;4.10;;;2.40;;
846;SDS011;410;48.954;9.474;2023-09-19T07:15:38;3.93;;;2.50;;
846;SDS011;410;48.954;9.474;2023-09-19T07:17:43;3.13;;;2.27;;
846;SDS011;410;48.954;9.474;2023-09-19T07:19:49;3.23;;;2.27;;
846;SDS011;410;48.954;9.474;2023-09-19T07:21:55;3.50;;;2.23;;
846;SDS011;410;48.954;9.474;2023-09-19T07:24:04;3.50;;;2.30;;
846;SDS011;410;48.954;9.474;2023-09-19T07:26:09;4.50;;;2.47;;
846;SDS011;410;48.954;9.474;2023-09-19T07:28:15;6.77;;;2.67;;
846;SDS011;410;48.954;9.474;2023-09-19T07:30:19;3.30;;;2.40;;
846;SDS011;410;48.954;9.474;2023-09-19T07:32:22;3.93;;;2.33;;
846;SDS011;410;48.954;9.474;2023-09-19T07:34:26;4.10;;;2.37;;
846;SDS011;410;48.954;9.474;2023-09-19T07:36:31;2.47;;;2.00;;
846;SDS011;410;48.954;9.474;2023-09-19T07:38:35;3.83;;;2.60;;
846;SDS011;410;48.954;9.474;2023-09-19T07:40:38;3.87;;;2.33;;
846;SDS011;410;48.954;9.474;2023-09-19T07:42:41;5.90;;;2.47;;
846;SDS011;410;48.954;9.474;2023-09-19T07:44:46;3.30;;;2.30;;
846;SDS011;410;48.954;9.474;2023-09-19T07:46:52;4.73;;;2.43;;
846;SDS011;410;48.954;9.474;2023-09-19T07:48:59;6.33;;;2.60;;
846;SDS011;410;48.954;9.474;2023-09-19T07:51:03;3.80;;;2.50;;
846;SDS011;410;48.954;9.474;2023-09-19T07:53:08;4.07;;;2.20;;
846;SDS011;410;48.954;9.474;2023-09-19T07:55:12;4.77;;;2.57;;
846;SDS011;410;48.954;9.474;2023-09-19T07:57:18;3.83;;;2.40;;
846;SDS011;410;48.954;9.474;2023-09-19T07:59:24;2.93;;;2.20;;
846;SDS011;410;48.954;9.474;2023-09-19T08:01:27;5.43;;;2.17;;
846;SDS011;410;48.954;9.474;2023-09-19T08:03:31;3.20;;;1.90;;
846;SDS011;410;48.954;9.474;2023-09-19T08:05:36;5.10;;;2.30;;
846;SDS011;410;48.954;9.474;2023-09-19T08:07:41;3.57;;;2.17;;
846;SDS011;410;48.954;9.474;2023-09-19T08:09:46;3.03;;;1.57;;
846;SDS011;410;48.954;9.474;2023-09-19T08:11:50;3.17;;;1.60;;
846;SDS011;410;48.954;9.474;2023-09-19T08:13:55;4.00;;;2.00;;
846;SDS011;410;48.954;9.474;2023-09-19T08:16:00;4.47;;;1.60;;
846;SDS011;410;48.954;9.474;2023-09-19T08:18:03;3.17;;;1.67;;
846;SDS011;410;48.954;9.474;2023-09-19T08:20:06;2.50;;;1.37;;
846;SDS011;410;48.954;9.474;2023-09-19T08:22:20;2.93;;;1.60;;
846;SDS011;410;48.954;9.474;2023-09-19T08:24:24;3.17;;;2.03;;
846;SDS011;410;48.954;9.474;2023-09-19T08:26:30;3.57;;;1.60;;
846;SDS011;410;48.954;9.474;2023-09-19T08:28:41;2.47;;;1.43;;
846;SDS011;410;48.954;9.474;2023-09-19T08:30:47;2.70;;;1.40;;
846;SDS011;410;48.954;9.474;2023-09-19T08:32:50;4.03;;;1.77;;
846;SDS011;410;48.954;9.474;2023-09-19T08:34:53;2.30;;;1.60;;
846;SDS011;410;48.954;9.474;2023-09-19T08:36:57;2.90;;;1.57;;
846;SDS011;410;48.954;9.474;2023-09-19T08:39:00;4.23;;;1.57;;
846;SDS011;410;48.954;9.474;2023-09-19T08:41:05;1.83;;;1.23;;
846;SDS011;410;48.954;9.474;2023-09-19T08:43:10;3.03;;;1.30;;
846;SDS011;410;48.954;9.474;2023-09-19T08:45:17;2.10;;;1.33;;
846;SDS011;410;48.954;9.474;2023-09-19T08:47:24;5.00;;;1.20;;
846;SDS011;410;48.954;9.474;2023-09-19T08:49:40;4.23;;;1.20;;
846;SDS011;410;48.954;9.474;2023-09-19T08:51:45;3.37;;;1.30;;
846;SDS011;410;48.954;9.474;2023-09-19T08:53:50;2.37;;;1.30;;
846;SDS011;410;48.954;9.474;2023-09-19T08:55:57;2.03;;;1.17;;
846;SDS011;410;48.954;9.474;2023-09-19T08:58:05;3.60;;;1.30;;
846;SDS011;410;48.954;9.474;2023-09-19T09:00:11;3.40;;;1.20;;
846;SDS011;410;48.954;9.474;2023-09-19T09:02:19;2.57;;;1.50;;
846;SDS011;410;48.954;9.474;2023-09-19T09:04:22;2.20;;;1.33;;
846;SDS011;410;48.954;9.474;2023-09-19T09:06:27;2.50;;;1.40;;
846;SDS011;410;48.954;9.474;2023-09-19T09:08:36;7.97;;;1.97;;
846;SDS011;410;48.954;9.474;2023-09-19T09:10:41;2.33;;;1.20;;
846;SDS011;410;48.954;9.474;2023-09-19T09:12:47;3.77;;;1.40;;
846;SDS011;410;48.954;9.474;2023-09-19T09:14:51;2.90;;;1.30;;
846;SDS011;410;48.954;9.474;2023-09-19T09:16:56;2.30;;;1.40;;
846;SDS011;410;48.954;9.474;2023-09-19T09:19:01;2.63;;;1.47;;
846;SDS011;410;48.954;9.474;2023-09-19T09:21:06;2.07;;;1.20;;
846;SDS011;410;48.954;9.474;2023-09-19T09:23:13;2.40;;;1.33;;
846;SDS011;410;48.954;9.474;2023-09-19T09:25:15;2.50;;;1.30;;
846;SDS011;410;48.954;9.474;2023-09-19T09:27:20;2.93;;;1.23;;
846;SDS011;410;48.954;9.474;2023-09-19T09:29:41;2.00;;;1.30;;
846;SDS011;410;48.954;9.474;2023-09-19T09:31:45;2.33;;;1.37;;
846;SDS011;410;48.954;9.474;2023-09-19T09:33:54;4.80;;;1.40;;
846;SDS011;410;48.954;9.474;2023-09-19T09:35:57;3.40;;;1.40;;
846;SDS011;410;48.954;9.474;2023-09-19T09:38:02;3.10;;;1.67;;
846;SDS011;410;48.954;9.474;2023-09-19T09:40:10;2.57;;;1.50;;
846;SDS011;410;48.954;9.474;2023-09-19T09:42:36;3.50;;;2.00;;
846;SDS011;410;48.954;9.474;2023-09-19T09:44:41;4.87;;;1.40;;
846;SDS011;410;48.954;9.474;2023-09-19T09:46:45;2.77;;;1.43;;
846;SDS011;410;48.954;9.474;2023-09-19T09:49:07;2.27;;;1.50;;
846;SDS011;410;48.954;9.474;2023-09-19T09:51:29;3.13;;;1.70;;
846;SDS011;410;48.954;9.474;2023-09-19T09:53:32;2.07;;;1.47;;
846;SDS011;410;48.954;9.474;2023-09-19T09:58:16;2.33;;;1.73;;
846;SDS011;410;48.954;9.474;2023-09-19T10:00:20;1.97;;;1.30;;
846;SDS011;410;48.954;9.474;2023-09-19T10:02:25;2.73;;;1.40;;
846;SDS011;410;48.954;9.474;2023-09-19T10:04:33;3.90;;;1.50;;
846;SDS011;410;48.954;9.474;2023-09-19T10:06:40;2.50;;;1.90;;
846;SDS011;410;48.954;9.474;2023-09-19T10:09:02;2.13;;;1.50;;
846;SDS011;410;48.954;9.474;2023-09-19T10:11:16;3.77;;;1.40;;
846;SDS011;410;48.954;9.474;2023-09-19T10:13:21;4.53;;;1.73;;
846;SDS011;410;48.954;9.474;2023-09-19T10:15:27;4.97;;;1.83;;
846;SDS011;410;48.954;9.474;2023-09-19T10:17:34;2.30;;;1.40;;
846;SDS011;410;48.954;9.474;2023-09-19T10:19:45;4.00;;;1.57;;
846;SDS011;410;48.954;9.474;2023-09-19T10:21:53;2.50;;;1.37;;
846;SDS011;410;48.954;9.474;2023-09-19T10:23:57;3.20;;;1.50;;
846;SDS011;410;48.954;9.474;2023-09-19T10:26:01;4.03;;;1.50;;
846;SDS011;410;48.954;9.474;2023-09-19T10:28:09;2.50;;;1.20;;
846;SDS011;410;48.954;9.474;2023-09-19T10:30:18;2.67;;;1.50;;
846;SDS011;410;48.954;9.474;2023-09-19T10:32:23;3.40;;;1.60;;
846;SDS011;410;48.954;9.474;2023-09-19T10:34:27;2.70;;;1.70;;
846;SDS011;410;48.954;9.474;2023-09-19T10:36:34;2.70;;;1.40;;
846;SDS011;410;48.954;9.474;2023-09-19T10:38:38;2.33;;;1.33;;
846;SDS011;410;48.954;9.474;2023-09-19T10:40:43;2.03;;;1.60;;
846;SDS011;410;48.954;9.474;2023-09-19T10:42:48;1.90;;;1.37;;
846;SDS011;410;48.954;9.474;2023-09-19T10:44:52;2.40;;;1.53;;
846;SDS011;410;48.954;9.474;2023-09-19T10:46:56;4.30;;;1.40;;
846;SDS011;410;48.954;9.474;2023-09-19T10:49:00;2.17;;;1.30;;
846;SDS011;410;48.954;9.474;2023-09-19T10:51:04;2.13;;;1.30;;
846;SDS011;410;48.954;9.474;2023-09-19T10:53:12;2.60;;;1.90;;
846;SDS011;410;48.954;9.474;2023-09-19T10:55:17;4.30;;;1.90;;
846;SDS011;410;48.954;9.474;2023-09-19T10:57:21;3.90;;;1.60;;
846;SDS011;410;48.954;9.474;2023-09-19T10:59:25;3.53;;;1.60;;
846;SDS011;410;48.954;9.474;2023-09-19T11:01:43;3.30;;;1.93;;
846;SDS011;410;48.954;9.474;2023-09-19T11:03:49;1.93;;;1.60;;
846;SDS011;410;48.954;9.474;2023-09-19T11:06:27;2.73;;;1.77;;
846;SDS011;410;48.954;9.474;2023-09-19T11:08:58;1.73;;;1.30;;
846;SDS011;410;48.954;9.474;2023-09-19T11:11:39;2.00;;;1.60;;
846;SDS011;410;48.954;9.474;2023-09-19T11:19:35;3.70;;;1.30;;
846;SDS011;410;48.954;9.474;2023-09-19T11:22:26;2.53;;;1.60;;
846;SDS011;410;48.954;9.474;2023-09-19T11:30:42;3.53;;;1.70;;
846;SDS011;410;48.954;9.474;2023-09-19T11:35:25;2.80;;;1.80;;
846;SDS011;410;48.954;9.474;2023-09-19T11:38:04;3.77;;;1.73;;
846;SDS011;410;48.954;9.474;2023-09-19T11:40:14;2.63;;;1.43;;
846;SDS011;410;48.954;9.474;2023-09-19T11:45:06;2.03;;;1.20;;
846;SDS011;410;48.954;9.474;2023-09-19T11:47:08;1.83;;;1.30;;
846;SDS011;410;48.954;9.474;2023-09-19T11:49:14;2.97;;;1.70;;
846;SDS011;410;48.954;9.474;2023-09-19T11:51:23;3.50;;;1.53;;
846;SDS011;410;48.954;9.474;2023-09-19T11:53:30;3.27;;;1.70;;
846;SDS011;410;48.954;9.474;2023-09-19T11:55:38;2.47;;;1.33;;
846;SDS011;410;48.954;9.474;2023-09-19T11:57:42;2.93;;;1.60;;
846;SDS011;410;48.954;9.474;2023-09-19T11:59:45;2.57;;;1.33;;
846;SDS011;410;48.954;9.474;2023-09-19T12:01:52;2.30;;;1.30;;
846;SDS011;410;48.954;9.474;2023-09-19T12:04:00;2.60;;;1.50;;
846;SDS011;410;48.954;9.474;2023-09-19T12:06:10;2.57;;;1.20;;
846;SDS011;410;48.954;9.474;2023-09-19T12:08:16;3.13;;;1.50;;
846;SDS011;410;48.954;9.474;2023-09-19T12:10:22;2.70;;;1.43;;
846;SDS011;410;48.954;9.474;2023-09-19T12:12:27;2.13;;;1.30;;
846;SDS011;410;48.954;9.474;2023-09-19T12:14:34;3.30;;;1.57;;
846;SDS011;410;48.954;9.474;2023-09-19T12:16:37;3.33;;;1.50;;
846;SDS011;410;48.954;9.474;2023-09-19T12:21:01;5.73;;;2.40;;
846;SDS011;410;48.954;9.474;2023-09-19T12:23:12;2.50;;;1.17;;
846;SDS011;410;48.954;9.474;2023-09-19T12:25:17;1.60;;;1.10;;
846;SDS011;410;48.954;9.474;2023-09-19T12:27:24;3.47;;;1.53;;
846;SDS011;410;48.954;9.474;2023-09-19T12:29:28;2.50;;;1.43;;
846;SDS011;410;48.954;9.474;2023-09-19T12:31:33;3.40;;;1.77;;
846;SDS011;410;48.954;9.474;2023-09-19T12:33:39;2.40;;;1.43;;
846;SDS011;410;48.954;9.474;2023-09-19T12:35:44;4.17;;;1.50;;
846;SDS011;410;48.954;9.474;2023-09-19T12:37:51;2.37;;;1.40;;
846;SDS011;410;48.954;9.474;2023-09-19T12:40:04;2.40;;;1.30;;
846;SDS011;410;48.954;9.474;2023-09-19T12:42:19;2.70;;;1.20;;
846;SDS011;410;48.954;9.474;2023-09-19T12:44:23;2.63;;;1.43;;
846;SDS011;410;48.954;9.474;2023-09-19T12:46:26;3.30;;;1.43;;
846;SDS011;410;48.954;9.474;2023-09-19T12:48:34;1.90;;;1.43;;
846;SDS011;410;48.954;9.474;2023-09-19T12:53:08;2.80;;;1.17;;
846;SDS011;410;48.954;9.474;2023-09-19T12:55:31;3.20;;;1.80;;
846;SDS011;410;48.954;9.474;2023-09-19T12:57:38;3.70;;;1.73;;
846;SDS011;410;48.954;9.474;2023-09-19T12:59:43;2.53;;;1.30;;
846;SDS011;410;48.954;9.474;2023-09-19T13:01:47;2.87;;;1.40;;
846;SDS011;410;48.954;9.474;2023-09-19T13:04:11;2.87;;;1.50;;
846;SDS011;410;48.954;9.474;2023-09-19T13:06:34;3.13;;;1.30;;
846;SDS011;410;48.954;9.474;2023-09-19T13:08:42;2.70;;;1.67;;
846;SDS011;410;48.954;9.474;2023-09-19T13:13:22;1.80;;;1.30;;
846;SDS011;410;48.954;9.474;2023-09-19T13:15:29;3.07;;;1.40;;
846;SDS011;410;48.954;9.474;2023-09-19T13:17:55;2.43;;;1.30;;
846;SDS011;410;48.954;9.474;2023-09-19T13:20:04;2.70;;;1.40;;
846;SDS011;410;48.954;9.474;2023-09-19T13:24:45;2.83;;;1.30;;
846;SDS011;410;48.954;9.474;2023-09-19T13:26:52;2.43;;;1.50;;
846;SDS011;410;48.954;9.474;2023-09-19T13:28:57;2.50;;;1.20;;
846;SDS011;410;48.954;9.474;2023-09-19T13:31:00;2.30;;;1.30;;
846;SDS011;410;48.954;9.474;2023-09-19T13:33:04;3.43;;;1.30;;
846;SDS011;410;48.954;9.474;2023-09-19T13:35:09;2.87;;;1.50;;
846;SDS011;410;48.954;9.474;2023-09-19T13:37:12;2.80;;;1.43;;
846;SDS011;410;48.954;9.474;2023-09-19T13:39:19;2.43;;;1.33;;
846;SDS011;410;48.954;9.474;2023-09-19T13:41:25;1.90;;;1.30;;
846;SDS011;410;48.954;9.474;2023-09-19T13:43:30;2.15;;;1.17;;
846;SDS011;410;48.954;9.474;2023-09-19T13:45:33;2.23;;;1.47;;
846;SDS011;410;48.954;9.474;2023-09-19T13:47:39;3.30;;;1.40;;
846;SDS011;410;48.954;9.474;2023-09-19T13:49:43;2.50;;;1.60;;
846;SDS011;410;48.954;9.474;2023-09-19T13:51:46;2.00;;;1.27;;
846;SDS011;410;48.954;9.474;2023-09-19T13:53:50;2.17;;;1.30;;
846;SDS011;410;48.954;9.474;2023-09-19T13:55:54;1.80;;;1.20;;
846;SDS011;410;48.954;9.474;2023-09-19T13:57:58;2.40;;;1.30;;
846;SDS011;410;48.954;9.474;2023-09-19T14:00:02;2.80;;;1.60;;
846;SDS011;410;48.954;9.474;2023-09-19T14:02:13;3.80;;;1.30;;